sensor_id;sensor_type;location;lat;lon;timestamp;pressure;altitude;pressure_sealevel;temperature;humidity
44001;BME280;29660;42.892;24.710;2023-07-13T00:01:50;96991.84;;;19.26;100.00
44001;BME280;29660;42.892;24.710;2023-07-13T00:07:13;97137.59;;;20.24;100.00
44001;BME280;29660;42.892;24.710;2023-07-13T00:12:37;97147.56;;;20.20;100.00
44001;BME280;29660;42.892;24.710;2023-07-13T00:17:59;97151.38;;;20.19;100.00
44001;BME280;29660;42.892;24.710;2023-07-13T00:23:22;97141.72;;;20.06;100.00
44001;BME280;29660;42.892;24.710;2023-07-13T00:28:44;97132.28;;;20.00;100.00
44001;BME280;29660;42.892;24.710;2023-07-13T00:34:07;97121.69;;;19.95;100.00
44001;BME280;29660;42.892;24.710;2023-07-13T00:39:29;97124.66;;;19.90;100.00
44001;BME280;29660;42.892;24.710;2023-07-13T00:50:52;97107.13;;;19.71;100.00
44001;BME280;29660;42.892;24.710;2023-07-13T00:56:15;97103.53;;;19.67;100.00
44001;BME280;29660;42.892;24.710;2023-07-13T01:01:39;97077.97;;;19.40;100.00
44001;BME280;29660;42.892;24.710;2023-07-13T01:07:01;96984.81;;;18.85;100.00
44001;BME280;29660;42.892;24.710;2023-07-13T01:12:23;97100.41;;;19.65;100.00
44001;BME280;29660;42.892;24.710;2023-07-13T01:17:46;97103.28;;;19.60;100.00
44001;BME280;29660;42.892;24.710;2023-07-13T01:23:09;97108.47;;;19.53;100.00
44001;BME280;29660;42.892;24.710;2023-07-13T01:28:32;97103.78;;;19.50;100.00
44001;BME280;29660;42.892;24.710;2023-07-13T01:33:58;97139.94;;;19.45;100.00
44001;BME280;29660;42.892;24.710;2023-07-13T01:39:21;96853.03;;;17.77;100.00
44001;BME280;29660;42.892;24.710;2023-07-13T01:44:44;97099.63;;;19.40;100.00
44001;BME280;29660;42.892;24.710;2023-07-13T01:50:06;97093.22;;;19.32;100.00
44001;BME280;29660;42.892;24.710;2023-07-13T01:55:29;97095.47;;;19.30;100.00
44001;BME280;29660;42.892;24.710;2023-07-13T02:00:51;96973.59;;;18.34;100.00
44001;BME280;29660;42.892;24.710;2023-07-13T02:06:15;97105.97;;;19.20;100.00
44001;BME280;29660;42.892;24.710;2023-07-13T02:11:37;97109.69;;;19.15;100.00
44001;BME280;29660;42.892;24.710;2023-07-13T02:16:59;97002.72;;;18.53;100.00
44001;BME280;29660;42.892;24.710;2023-07-13T02:22:22;97006.34;;;18.45;100.00
44001;BME280;29660;42.892;24.710;2023-07-13T02:27:44;96980.66;;;18.26;100.00
44001;BME280;29660;42.892;24.710;2023-07-13T02:33:06;97096.63;;;18.93;100.00
44001;BME280;29660;42.892;24.710;2023-07-13T02:38:28;96944.66;;;17.98;100.00
44001;BME280;29660;42.892;24.710;2023-07-13T02:43:51;97119.16;;;18.97;100.00
44001;BME280;29660;42.892;24.710;2023-07-13T02:49:13;97120.28;;;18.96;100.00
44001;BME280;29660;42.892;24.710;2023-07-13T02:54:35;97125.22;;;18.94;100.00
44001;BME280;29660;42.892;24.710;2023-07-13T02:59:57;97126.81;;;18.95;100.00
44001;BME280;29660;42.892;24.710;2023-07-13T03:05:19;97117.13;;;18.94;100.00
44001;BME280;29660;42.892;24.710;2023-07-13T03:10:42;97124.31;;;18.89;100.00
44001;BME280;29660;42.892;24.710;2023-07-13T03:16:07;97060.69;;;18.55;100.00
44001;BME280;29660;42.892;24.710;2023-07-13T03:21:30;97116.44;;;18.97;100.00
44001;BME280;29660;42.892;24.710;2023-07-13T03:26:52;97117.69;;;18.99;100.00
44001;BME280;29660;42.892;24.710;2023-07-13T03:32:15;97113.06;;;19.12;100.00
44001;BME280;29660;42.892;24.710;2023-07-13T03:37:37;97113.28;;;19.31;100.00
44001;BME280;29660;42.892;24.710;2023-07-13T03:43:08;97072.06;;;19.22;100.00
44001;BME280;29660;42.892;24.710;2023-07-13T03:48:30;96711.50;;;17.01;100.00
44001;BME280;29660;42.892;24.710;2023-07-13T03:53:54;97111.59;;;19.79;100.00
44001;BME280;29660;42.892;24.710;2023-07-13T03:59:16;97056.78;;;19.82;100.00
44001;BME280;29660;42.892;24.710;2023-07-13T04:04:40;97050.25;;;20.59;100.00
44001;BME280;29660;42.892;24.710;2023-07-13T04:10:02;97109.53;;;22.17;100.00
44001;BME280;29660;42.892;24.710;2023-07-13T04:15:28;97087.50;;;23.18;98.60
44001;BME280;29660;42.892;24.710;2023-07-13T04:20:51;97081.16;;;23.97;90.63
44001;BME280;29660;42.892;24.710;2023-07-13T04:26:13;97100.78;;;24.95;82.65
44001;BME280;29660;42.892;24.710;2023-07-13T04:31:35;97108.59;;;25.48;81.01
44001;BME280;29660;42.892;24.710;2023-07-13T04:36:58;97082.69;;;26.04;73.86
44001;BME280;29660;42.892;24.710;2023-07-13T04:42:20;97111.75;;;26.84;70.26
44001;BME280;29660;42.892;24.710;2023-07-13T04:47:42;97107.84;;;27.06;68.03
44001;BME280;29660;42.892;24.710;2023-07-13T04:53:05;97110.94;;;27.51;67.71
44001;BME280;29660;42.892;24.710;2023-07-13T04:58:28;97055.75;;;27.56;65.16
44001;BME280;29660;42.892;24.710;2023-07-13T05:03:50;97064.63;;;27.85;63.01
44001;BME280;29660;42.892;24.710;2023-07-13T05:09:12;97105.09;;;28.41;62.13
44001;BME280;29660;42.892;24.710;2023-07-13T05:14:35;97101.41;;;27.95;62.85
44001;BME280;29660;42.892;24.710;2023-07-13T05:19:57;97106.75;;;28.24;61.05
44001;BME280;29660;42.892;24.710;2023-07-13T05:25:19;97109.28;;;27.86;65.33
44001;BME280;29660;42.892;24.710;2023-07-13T05:30:46;96994.84;;;27.20;63.60
44001;BME280;29660;42.892;24.710;2023-07-13T05:36:08;97019.06;;;27.29;68.46
44001;BME280;29660;42.892;24.710;2023-07-13T05:41:30;97091.34;;;27.56;65.78
44001;BME280;29660;42.892;24.710;2023-07-13T05:46:53;97069.03;;;27.58;68.11
44001;BME280;29660;42.892;24.710;2023-07-13T05:52:16;97103.28;;;28.12;68.65
44001;BME280;29660;42.892;24.710;2023-07-13T05:57:39;97051.78;;;27.64;70.51
44001;BME280;29660;42.892;24.710;2023-07-13T06:03:01;97119.31;;;28.18;67.83
44001;BME280;29660;42.892;24.710;2023-07-13T06:08:23;97101.97;;;28.42;67.30
44001;BME280;29660;42.892;24.710;2023-07-13T06:13:45;97113.59;;;28.60;66.89
44001;BME280;29660;42.892;24.710;2023-07-13T06:19:07;97117.09;;;28.65;64.04
44001;BME280;29660;42.892;24.710;2023-07-13T06:24:29;97123.69;;;28.78;64.75
44001;BME280;29660;42.892;24.710;2023-07-13T06:29:52;97121.72;;;28.78;64.50
44001;BME280;29660;42.892;24.710;2023-07-13T06:35:14;97121.97;;;28.95;67.50
44001;BME280;29660;42.892;24.710;2023-07-13T06:40:36;97024.81;;;28.29;67.58
44001;BME280;29660;42.892;24.710;2023-07-13T06:45:58;97123.81;;;29.12;71.67
44001;BME280;29660;42.892;24.710;2023-07-13T06:51:20;97113.09;;;29.25;71.43
44001;BME280;29660;42.892;24.710;2023-07-13T06:56:43;97113.41;;;29.34;68.85
44001;BME280;29660;42.892;24.710;2023-07-13T07:02:06;97124.84;;;29.29;68.28
44001;BME280;29660;42.892;24.710;2023-07-13T07:07:28;97056.09;;;28.91;67.86
44001;BME280;29660;42.892;24.710;2023-07-13T07:12:50;97098.69;;;29.51;68.42
44001;BME280;29660;42.892;24.710;2023-07-13T07:18:12;97104.69;;;29.80;69.61
44001;BME280;29660;42.892;24.710;2023-07-13T07:23:34;97095.03;;;29.99;68.97
44001;BME280;29660;42.892;24.710;2023-07-13T07:28:56;97010.44;;;29.80;73.47
44001;BME280;29660;42.892;24.710;2023-07-13T07:34:22;97107.59;;;30.58;66.95
44001;BME280;29660;42.892;24.710;2023-07-13T07:39:44;97065.84;;;30.63;69.53
44001;BME280;29660;42.892;24.710;2023-07-13T07:45:26;97088.78;;;31.03;69.80
44001;BME280;29660;42.892;24.710;2023-07-13T07:50:49;96954.78;;;30.26;64.80
44001;BME280;29660;42.892;24.710;2023-07-13T08:15:04;97036.72;;;31.92;56.39
44001;BME280;29660;42.892;24.710;2023-07-13T08:20:27;97059.56;;;32.29;57.95
44001;BME280;29660;42.892;24.710;2023-07-13T08:25:53;97017.91;;;32.23;52.19
44001;BME280;29660;42.892;24.710;2023-07-13T08:31:15;96767.34;;;30.84;52.28
44001;BME280;29660;42.892;24.710;2023-07-13T08:36:37;97058.13;;;32.90;51.59
44001;BME280;29660;42.892;24.710;2023-07-13T08:42:33;97065.31;;;33.04;51.26
44001;BME280;29660;42.892;24.710;2023-07-13T08:48:04;97058.50;;;33.37;47.95
44001;BME280;29660;42.892;24.710;2023-07-13T08:53:44;96968.06;;;32.92;46.04
44001;BME280;29660;42.892;24.710;2023-07-13T08:59:16;96973.94;;;33.11;46.97
44001;BME280;29660;42.892;24.710;2023-07-13T09:04:45;96997.53;;;33.28;46.19
44001;BME280;29660;42.892;24.710;2023-07-13T09:10:15;96963.69;;;33.24;47.54
44001;BME280;29660;42.892;24.710;2023-07-13T09:15:41;97038.41;;;33.91;45.62
44001;BME280;29660;42.892;24.710;2023-07-13T09:21:10;97014.16;;;33.83;45.16
44001;BME280;29660;42.892;24.710;2023-07-13T09:26:34;97044.59;;;33.95;44.16
44001;BME280;29660;42.892;24.710;2023-07-13T09:31:58;96999.97;;;33.68;45.12
44001;BME280;29660;42.892;24.710;2023-07-13T09:37:29;96987.59;;;33.85;44.39
44001;BME280;29660;42.892;24.710;2023-07-13T09:42:56;96940.44;;;33.63;43.79
44001;BME280;29660;42.892;24.710;2023-07-13T09:48:20;97022.06;;;34.35;44.37
44001;BME280;29660;42.892;24.710;2023-07-13T09:53:43;97005.66;;;34.41;44.06
44001;BME280;29660;42.892;24.710;2023-07-13T09:59:20;97060.03;;;34.73;44.52
44001;BME280;29660;42.892;24.710;2023-07-13T10:04:43;97059.94;;;34.64;45.26
44001;BME280;29660;42.892;24.710;2023-07-13T10:10:15;96937.72;;;34.02;46.13
44001;BME280;29660;42.892;24.710;2023-07-13T10:15:38;97050.03;;;34.88;44.80
44001;BME280;29660;42.892;24.710;2023-07-13T10:21:11;96969.66;;;34.41;41.98
44001;BME280;29660;42.892;24.710;2023-07-13T10:32:29;97046.03;;;34.89;41.54
44001;BME280;29660;42.892;24.710;2023-07-13T10:37:55;97047.91;;;34.92;41.16
44001;BME280;29660;42.892;24.710;2023-07-13T10:43:27;97054.47;;;34.99;41.02
44001;BME280;29660;42.892;24.710;2023-07-13T10:48:53;96969.19;;;34.68;40.67
44001;BME280;29660;42.892;24.710;2023-07-13T10:54:36;97048.78;;;35.37;39.55
44001;BME280;29660;42.892;24.710;2023-07-13T11:10:55;97022.94;;;35.62;40.31
44001;BME280;29660;42.892;24.710;2023-07-13T11:27:42;97017.13;;;35.69;39.46
44001;BME280;29660;42.892;24.710;2023-07-13T11:38:38;96918.66;;;35.21;38.74
44001;BME280;29660;42.892;24.710;2023-07-13T11:44:07;97008.47;;;35.67;37.89
44001;BME280;29660;42.892;24.710;2023-07-13T11:49:31;96989.19;;;35.41;37.60
44001;BME280;29660;42.892;24.710;2023-07-13T11:54:55;97006.28;;;35.40;37.48
44001;BME280;29660;42.892;24.710;2023-07-13T12:00:22;96997.00;;;35.56;39.03
44001;BME280;29660;42.892;24.710;2023-07-13T12:11:21;96977.41;;;35.50;37.93
44001;BME280;29660;42.892;24.710;2023-07-13T12:16:45;96962.69;;;35.62;38.45
44001;BME280;29660;42.892;24.710;2023-07-13T12:22:12;96896.41;;;35.33;38.53
44001;BME280;29660;42.892;24.710;2023-07-13T12:27:34;96942.38;;;36.06;38.30
44001;BME280;29660;42.892;24.710;2023-07-13T12:38:45;96927.63;;;36.27;36.91
44001;BME280;29660;42.892;24.710;2023-07-13T12:44:11;96902.91;;;36.11;38.62
44001;BME280;29660;42.892;24.710;2023-07-13T12:49:34;96911.91;;;36.43;38.43
44001;BME280;29660;42.892;24.710;2023-07-13T12:55:10;96890.88;;;36.23;38.15
44001;BME280;29660;42.892;24.710;2023-07-13T13:00:37;96893.19;;;36.16;38.14
44001;BME280;29660;42.892;24.710;2023-07-13T13:06:06;96890.00;;;36.35;37.83
44001;BME280;29660;42.892;24.710;2023-07-13T13:11:31;96790.69;;;35.72;37.85
44001;BME280;29660;42.892;24.710;2023-07-13T13:16:53;96869.91;;;36.22;38.79
44001;BME280;29660;42.892;24.710;2023-07-13T13:22:16;96896.47;;;36.42;38.29
44001;BME280;29660;42.892;24.710;2023-07-13T13:27:43;96796.72;;;35.79;39.16
44001;BME280;29660;42.892;24.710;2023-07-13T13:33:10;96802.44;;;35.45;39.79
44001;BME280;29660;42.892;24.710;2023-07-13T13:38:34;96864.09;;;35.80;39.29
44001;BME280;29660;42.892;24.710;2023-07-13T13:43:56;96894.00;;;36.16;38.17
44001;BME280;29660;42.892;24.710;2023-07-13T13:49:21;96876.09;;;36.08;38.47
44001;BME280;29660;42.892;24.710;2023-07-13T13:54:44;96896.59;;;36.20;40.27
44001;BME280;29660;42.892;24.710;2023-07-13T14:00:09;96894.63;;;36.20;41.41
44001;BME280;29660;42.892;24.710;2023-07-13T14:05:36;96881.56;;;35.89;40.54
44001;BME280;29660;42.892;24.710;2023-07-13T14:11:02;96882.47;;;35.86;39.53
44001;BME280;29660;42.892;24.710;2023-07-13T14:16:30;96887.25;;;35.86;39.51
44001;BME280;29660;42.892;24.710;2023-07-13T14:21:53;96880.16;;;35.85;42.87
44001;BME280;29660;42.892;24.710;2023-07-13T14:27:16;96880.56;;;35.74;42.49
44001;BME280;29660;42.892;24.710;2023-07-13T14:32:38;96888.44;;;35.76;42.85
44001;BME280;29660;42.892;24.710;2023-07-13T14:38:00;96805.41;;;35.10;42.95
44001;BME280;29660;42.892;24.710;2023-07-13T14:43:23;96840.13;;;35.24;42.76
44001;BME280;29660;42.892;24.710;2023-07-13T14:48:46;96892.00;;;35.45;44.63
44001;BME280;29660;42.892;24.710;2023-07-13T14:54:09;96808.50;;;34.90;44.03
44001;BME280;29660;42.892;24.710;2023-07-13T14:59:31;96876.06;;;35.36;42.05
44001;BME280;29660;42.892;24.710;2023-07-13T15:04:53;96875.38;;;35.23;40.64
44001;BME280;29660;42.892;24.710;2023-07-13T15:10:28;96862.69;;;35.13;41.78
44001;BME280;29660;42.892;24.710;2023-07-13T15:15:52;96804.97;;;34.67;42.34
44001;BME280;29660;42.892;24.710;2023-07-13T15:21:21;96874.38;;;35.08;42.20
44001;BME280;29660;42.892;24.710;2023-07-13T15:26:44;96864.31;;;35.01;41.77
44001;BME280;29660;42.892;24.710;2023-07-13T15:32:13;96817.66;;;34.56;41.87
44001;BME280;29660;42.892;24.710;2023-07-13T15:37:36;96878.34;;;34.85;43.83
44001;BME280;29660;42.892;24.710;2023-07-13T15:42:58;96869.84;;;34.79;43.09
44001;BME280;29660;42.892;24.710;2023-07-13T15:48:22;96864.81;;;34.65;41.80
44001;BME280;29660;42.892;24.710;2023-07-13T15:53:45;96803.72;;;34.25;43.76
44001;BME280;29660;42.892;24.710;2023-07-13T15:59:10;96888.13;;;34.55;57.27
44001;BME280;29660;42.892;24.710;2023-07-13T16:04:36;96881.50;;;34.39;61.02
44001;BME280;29660;42.892;24.710;2023-07-13T16:09:58;96889.06;;;34.26;64.97
44001;BME280;29660;42.892;24.710;2023-07-13T16:15:21;96849.59;;;33.87;64.83
44001;BME280;29660;42.892;24.710;2023-07-13T16:20:44;96861.16;;;33.60;67.49
44001;BME280;29660;42.892;24.710;2023-07-13T16:32:00;96830.75;;;32.93;72.12
44001;BME280;29660;42.892;24.710;2023-07-13T16:37:28;96826.25;;;32.70;76.62
44001;BME280;29660;42.892;24.710;2023-07-13T16:42:51;96892.31;;;32.93;77.16
44001;BME280;29660;42.892;24.710;2023-07-13T16:48:17;96887.53;;;32.65;78.58
44001;BME280;29660;42.892;24.710;2023-07-13T16:53:40;96884.66;;;32.23;84.82
44001;BME280;29660;42.892;24.710;2023-07-13T16:59:14;96871.91;;;31.96;85.82
44001;BME280;29660;42.892;24.710;2023-07-13T17:04:36;96894.44;;;31.75;89.94
44001;BME280;29660;42.892;24.710;2023-07-13T17:09:59;96903.25;;;31.70;90.45
44001;BME280;29660;42.892;24.710;2023-07-13T17:15:23;96857.34;;;31.07;92.24
44001;BME280;29660;42.892;24.710;2023-07-13T17:20:50;96910.31;;;31.15;93.61
44001;BME280;29660;42.892;24.710;2023-07-13T17:26:12;96907.50;;;30.98;96.01
44001;BME280;29660;42.892;24.710;2023-07-13T17:31:34;96848.47;;;30.36;99.06
44001;BME280;29660;42.892;24.710;2023-07-13T17:36:56;96905.59;;;30.52;100.00
44001;BME280;29660;42.892;24.710;2023-07-13T17:42:21;96915.72;;;30.35;100.00
44001;BME280;29660;42.892;24.710;2023-07-13T17:47:43;96911.50;;;30.03;100.00
44001;BME280;29660;42.892;24.710;2023-07-13T17:53:14;96894.59;;;29.47;100.00
44001;BME280;29660;42.892;24.710;2023-07-13T17:58:36;96916.28;;;29.42;100.00
44001;BME280;29660;42.892;24.710;2023-07-13T18:04:00;96913.44;;;29.18;100.00
44001;BME280;29660;42.892;24.710;2023-07-13T18:09:24;96912.03;;;29.06;100.00
44001;BME280;29660;42.892;24.710;2023-07-13T18:14:48;96859.69;;;28.49;100.00
44001;BME280;29660;42.892;24.710;2023-07-13T18:20:14;96905.13;;;28.53;100.00
44001;BME280;29660;42.892;24.710;2023-07-13T18:25:38;96932.50;;;28.57;100.00
44001;BME280;29660;42.892;24.710;2023-07-13T18:31:01;96942.47;;;28.40;100.00
44001;BME280;29660;42.892;24.710;2023-07-13T18:36:23;96943.09;;;28.10;100.00
44001;BME280;29660;42.892;24.710;2023-07-13T18:41:46;96941.22;;;28.00;100.00
44001;BME280;29660;42.892;24.710;2023-07-13T18:47:16;96949.16;;;27.83;100.00
44001;BME280;29660;42.892;24.710;2023-07-13T18:52:39;96947.38;;;27.45;100.00
44001;BME280;29660;42.892;24.710;2023-07-13T18:58:05;96964.28;;;27.32;100.00
44001;BME280;29660;42.892;24.710;2023-07-13T19:03:32;96881.22;;;26.51;100.00
44001;BME280;29660;42.892;24.710;2023-07-13T19:08:55;96978.00;;;27.07;100.00
44001;BME280;29660;42.892;24.710;2023-07-13T19:14:20;96983.53;;;26.97;100.00
44001;BME280;29660;42.892;24.710;2023-07-13T19:19:44;96982.34;;;26.87;100.00
44001;BME280;29660;42.892;24.710;2023-07-13T19:25:16;96873.44;;;26.03;100.00
44001;BME280;29660;42.892;24.710;2023-07-13T19:30:39;96982.00;;;26.67;100.00
44001;BME280;29660;42.892;24.710;2023-07-13T19:36:01;96917.56;;;26.23;100.00
44001;BME280;29660;42.892;24.710;2023-07-13T19:41:26;96905.81;;;26.01;100.00
44001;BME280;29660;42.892;24.710;2023-07-13T19:46:49;96980.81;;;26.36;100.00
44001;BME280;29660;42.892;24.710;2023-07-13T19:52:13;96985.13;;;26.30;100.00
44001;BME280;29660;42.892;24.710;2023-07-13T19:57:36;96976.13;;;26.22;100.00
44001;BME280;29660;42.892;24.710;2023-07-13T20:02:58;96975.72;;;26.09;100.00
44001;BME280;29660;42.892;24.710;2023-07-13T20:08:21;96973.38;;;26.01;100.00
44001;BME280;29660;42.892;24.710;2023-07-13T20:13:43;96951.47;;;25.76;99.94
44001;BME280;29660;42.892;24.710;2023-07-13T20:19:11;96887.34;;;25.19;100.00
44001;BME280;29660;42.892;24.710;2023-07-13T20:24:34;96967.03;;;25.68;100.00
44001;BME280;29660;42.892;24.710;2023-07-13T20:29:56;96974.03;;;25.51;100.00
44001;BME280;29660;42.892;24.710;2023-07-13T20:40:46;96971.59;;;25.25;100.00
44001;BME280;29660;42.892;24.710;2023-07-13T20:46:15;96874.03;;;24.38;100.00
44001;BME280;29660;42.892;24.710;2023-07-13T20:51:38;96910.31;;;24.42;100.00
44001;BME280;29660;42.892;24.710;2023-07-13T20:57:00;96903.97;;;24.31;100.00
44001;BME280;29660;42.892;24.710;2023-07-13T21:02:31;96986.47;;;24.72;100.00
44001;BME280;29660;42.892;24.710;2023-07-13T21:07:54;96981.66;;;24.55;100.00
44001;BME280;29660;42.892;24.710;2023-07-13T21:13:16;96689.25;;;22.48;100.00
44001;BME280;29660;42.892;24.710;2023-07-13T21:18:39;96811.91;;;23.14;100.00
44001;BME280;29660;42.892;24.710;2023-07-13T21:24:01;96983.97;;;24.08;100.00
44001;BME280;29660;42.892;24.710;2023-07-13T21:29:23;96972.22;;;24.00;100.00
44001;BME280;29660;42.892;24.710;2023-07-13T21:34:46;96963.00;;;23.71;100.00
44001;BME280;29660;42.892;24.710;2023-07-13T21:40:13;96903.00;;;23.27;100.00
44001;BME280;29660;42.892;24.710;2023-07-13T21:45:37;96962.41;;;23.55;100.00
44001;BME280;29660;42.892;24.710;2023-07-13T21:50:59;96950.44;;;23.30;100.00
44001;BME280;29660;42.892;24.710;2023-07-13T21:56:23;96954.00;;;23.34;100.00
44001;BME280;29660;42.892;24.710;2023-07-13T22:01:45;96853.19;;;22.59;100.00
44001;BME280;29660;42.892;24.710;2023-07-13T22:07:10;96940.78;;;23.02;100.00
44001;BME280;29660;42.892;24.710;2023-07-13T22:12:35;96801.22;;;22.08;100.00
44001;BME280;29660;42.892;24.710;2023-07-13T22:17:57;96906.88;;;22.66;100.00
44001;BME280;29660;42.892;24.710;2023-07-13T22:23:24;96927.91;;;22.69;100.00
44001;BME280;29660;42.892;24.710;2023-07-13T22:28:56;96932.78;;;22.60;100.00
44001;BME280;29660;42.892;24.710;2023-07-13T22:34:20;96903.13;;;22.21;100.00
44001;BME280;29660;42.892;24.710;2023-07-13T22:39:44;96816.88;;;21.65;100.00
44001;BME280;29660;42.892;24.710;2023-07-13T22:45:07;96908.56;;;22.21;100.00
44001;BME280;29660;42.892;24.710;2023-07-13T22:50:30;96899.53;;;22.13;100.00
44001;BME280;29660;42.892;24.710;2023-07-13T22:55:53;96771.53;;;21.19;100.00
44001;BME280;29660;42.892;24.710;2023-07-13T23:01:25;96872.81;;;21.69;100.00
44001;BME280;29660;42.892;24.710;2023-07-13T23:06:48;96899.97;;;21.96;100.00
44001;BME280;29660;42.892;24.710;2023-07-13T23:12:14;96900.53;;;21.82;100.00
44001;BME280;29660;42.892;24.710;2023-07-13T23:17:36;96897.56;;;21.68;100.00
44001;BME280;29660;42.892;24.710;2023-07-13T23:23:00;96875.38;;;21.62;100.00
44001;BME280;29660;42.892;24.710;2023-07-13T23:28:22;96884.25;;;21.59;100.00
44001;BME280;29660;42.892;24.710;2023-07-13T23:33:44;96881.03;;;21.53;100.00
44001;BME280;29660;42.892;24.710;2023-07-13T23:39:17;96880.16;;;21.46;100.00
44001;BME280;29660;42.892;24.710;2023-07-13T23:44:40;96889.78;;;21.43;100.00
44001;BME280;29660;42.892;24.710;2023-07-13T23:50:10;96878.00;;;21.16;100.00
44001;BME280;29660;42.892;24.710;2023-07-13T23:55:33;96834.88;;;20.88;100.00
